Parma — V2OZ9 — position and weather

sailwx.info

Track history (hours):
 
Tides and Currents Weather Stations Pressure Air Temp Water Temp Dewpoint Dewpoint Depression Visibility Wind Speed Wind Dir Waves Ship Positions

Parma

Last reported at 2015-May-05 00:05 UTC. Time now 2015-May-05 21:20 UTC.
Position N 35°58' W 005°34'.

MMSI: 279073176.

Date/timePositionNaut miles runAvg speedWind from/ knotsBaromVisibWave heightAir tempDewpointWater temp
2015-May-05 00:05N 35°58' W 005°34'3 6.2
2015-May-04 23:33N 35°58' W 005°30'4 3.7
2015-May-04 22:28N 35°59' W 005°25'3 3.0
2015-May-04 21:32N 35°59' W 005°22'3 3.2
2015-May-04 20:33N 35°56' W 005°20'2 2.1
2015-May-04 19:33N 35°54' W 005°19'0 0.0
2015-May-04 18:33N 35°54' W 005°19'0 0.0
2015-May-04 17:33N 35°54' W 005°19'0 0.0
2015-May-04 16:33N 35°54' W 005°19'0 0.0
2015-May-04 15:33N 35°54' W 005°19'0 0.0
2015-May-04 14:33N 35°54' W 005°19'0 0.5
2015-May-04 13:33N 35°54' W 005°19'157 6.2
2015-May-03 12:13N 36°17' W 002°06'6 7.7
2015-May-03 11:26N 36°18' W 001°58'9 7.5
2015-May-03 10:17N 36°20' W 001°48'6 7.7
2015-May-03 09:33N 36°21' W 001°41'8 7.6
2015-May-03 08:30N 36°22' W 001°31'10 7.8
2015-May-03 07:10N 36°24' W 001°19'27 7.3
2015-May-03 03:31N 36°28' W 000°46'39 7.9
2015-May-02 22:29N 36°36' E 000°02'7 7.9
2015-May-02 21:33N 36°38' E 000°11'23 7.6
2015-May-02 18:33N 36°46' E 000°38'7 7.6
2015-May-02 17:33N 36°49' E 000°46'5 4.6
2015-May-02 16:33N 36°51' E 000°52'8 3.4
2015-May-02 14:22N 36°53' E 001°01'10 7.2
2015-May-02 13:03N 36°53' E 001°13'58 7.4
2015-May-02 05:16N 37°03' E 002°24'15 7.4
2015-May-02 03:12N 37°06' E 002°43'394 7.9
2015-Apr-30 01:32N 38°06' E 010°55'8 8.0
2015-Apr-30 00:33N 38°08' E 011°05'6 6.3
2015-Apr-29 23:33N 38°08' E 011°13'16 5.3
2015-Apr-29 20:32N 38°11' E 011°33'10 8.7
2015-Apr-29 19:22N 38°12' E 011°46'69 8.9
2015-Apr-29 11:33N 38°20' E 013°14'8 7.7
2015-Apr-29 10:34N 38°21' E 013°23'8 8.5
2015-Apr-29 09:33N 38°21' E 013°34'9 8.7
2015-Apr-29 08:33N 38°20' E 013°45'226 6.4
2015-Apr-27 21:23N 39°37' E 018°19'11 8.8
2015-Apr-27 20:09N 39°45' E 018°29'5 8.6
2015-Apr-27 19:33N 39°49' E 018°32'11 9.1
2015-Apr-27 18:22N 39°60' E 018°36'7 9.1
2015-Apr-27 17:33N 40°07' E 018°39'9 8.6
2015-Apr-27 16:33N 40°15' E 018°39'18 8.6
2015-Apr-27 14:29N 40°32' E 018°32'  
Track history (hours):
 
Tides and Currents Weather Stations Pressure Air Temp Water Temp Dewpoint Dewpoint Depression Visibility Wind Speed Wind Dir Waves Ship Positions

Parma

Last reported at 2015-May-05 00:05 UTC. Time now 2015-May-05 21:20 UTC.
Position N 35°58' W 005°34'.

MMSI: 279073176.

Date/timePositionNaut miles runAvg speedWind from/ knotsBaromVisibWave heightAir tempDewpointWater temp
2015-May-05 00:05N 35°58' W 005°34'3 6.2
2015-May-04 23:33N 35°58' W 005°30'4 3.7
2015-May-04 22:28N 35°59' W 005°25'3 3.0
2015-May-04 21:32N 35°59' W 005°22'3 3.2
2015-May-04 20:33N 35°56' W 005°20'2 2.1
2015-May-04 19:33N 35°54' W 005°19'0 0.0
2015-May-04 18:33N 35°54' W 005°19'0 0.0
2015-May-04 17:33N 35°54' W 005°19'0 0.0
2015-May-04 16:33N 35°54' W 005°19'0 0.0
2015-May-04 15:33N 35°54' W 005°19'0 0.0
2015-May-04 14:33N 35°54' W 005°19'0 0.5
2015-May-04 13:33N 35°54' W 005°19'157 6.2
2015-May-03 12:13N 36°17' W 002°06'6 7.7
2015-May-03 11:26N 36°18' W 001°58'9 7.5
2015-May-03 10:17N 36°20' W 001°48'6 7.7
2015-May-03 09:33N 36°21' W 001°41'8 7.6
2015-May-03 08:30N 36°22' W 001°31'10 7.8
2015-May-03 07:10N 36°24' W 001°19'27 7.3
2015-May-03 03:31N 36°28' W 000°46'39 7.9
2015-May-02 22:29N 36°36' E 000°02'7 7.9
2015-May-02 21:33N 36°38' E 000°11'23 7.6
2015-May-02 18:33N 36°46' E 000°38'7 7.6
2015-May-02 17:33N 36°49' E 000°46'5 4.6
2015-May-02 16:33N 36°51' E 000°52'8 3.4
2015-May-02 14:22N 36°53' E 001°01'10 7.2
2015-May-02 13:03N 36°53' E 001°13'58 7.4
2015-May-02 05:16N 37°03' E 002°24'15 7.4
2015-May-02 03:12N 37°06' E 002°43'394 7.9
2015-Apr-30 01:32N 38°06' E 010°55'8 8.0
2015-Apr-30 00:33N 38°08' E 011°05'6 6.3
2015-Apr-29 23:33N 38°08' E 011°13'16 5.3
2015-Apr-29 20:32N 38°11' E 011°33'10 8.7
2015-Apr-29 19:22N 38°12' E 011°46'69 8.9
2015-Apr-29 11:33N 38°20' E 013°14'8 7.7
2015-Apr-29 10:34N 38°21' E 013°23'8 8.5
2015-Apr-29 09:33N 38°21' E 013°34'9 8.7
2015-Apr-29 08:33N 38°20' E 013°45'226 6.4
2015-Apr-27 21:23N 39°37' E 018°19'11 8.8
2015-Apr-27 20:09N 39°45' E 018°29'5 8.6
2015-Apr-27 19:33N 39°49' E 018°32'11 9.1
2015-Apr-27 18:22N 39°60' E 018°36'7 9.1
2015-Apr-27 17:33N 40°07' E 018°39'9 8.6
2015-Apr-27 16:33N 40°15' E 018°39'18 8.6
2015-Apr-27 14:29N 40°32' E 018°32'  

Dump ship's entire track history